Flight Track Log - Related Links

Times and Time Zones

All times are in EDT time to prevent confusion due to time zone crossing. See the N1576C flight status page for this flight to view local times or setup timezone preferences in your user account.

Time Position Orientation Groundspeed Altitude Reporting Facility
EDT Latitude Longitude Course Direction KTS MPH feet Rate Location/Type
Tue 11:23:26 AM 26.3992 -80.6372 290° West 92 106 8,000  Level Miami Center
Tue 11:24:26 AM 26.4089 -80.6678 290° West 105 121 7,600 -600 Descending Miami Center
Tue 11:25:26 AM 26.4264 -80.7078 296° West 123 142 6,800 -550 Descending Miami Center
Tue 11:26:26 AM 26.4383 -80.7383 294° West 123 142 6,500 -150 Descending Miami Center
Tue 11:27:26 AM 26.4519 -80.7711 295° West 118 136 6,500  Level Miami Center
Tue 11:28:26 AM 26.4617 -80.7969 293° West 107 123 6,500  Level Miami Center
Tue 11:29:26 AM 26.4733 -80.8322 290° West 112 129 6,500 50 Level Miami Center
Tue 11:30:26 AM 26.4831 -80.8581 293° West 112 129 6,600 50 Climbing Miami Center
Tue 11:31:26 AM 26.4967 -80.8908 295° West 112 129 6,600 -50 Level Miami Center
Tue 11:32:26 AM 26.5106 -80.9194 298° West 118 136 6,500 -50 Descending Miami Center
Tue 11:33:26 AM 26.5242 -80.9569 292° West 113 130 6,500  Level Miami Center
Tue 11:34:26 AM 26.5339 -80.9850 291° West 113 130 6,500  Level Miami Center
Tue 11:35:26 AM 26.5475 -81.0158 296° West 113 130 6,500 50 Level Miami Center
Tue 11:36:26 AM 26.5592 -81.0486 292° West 113 130 6,600 50 Climbing Miami Center
Tue 11:37:26 AM 26.5708 -81.0792 293° West 113 130 6,600  Level Miami Center
Tue 11:38:26 AM 26.5803 -81.1122 288° West 113 130 6,600  Level Miami Center
Tue 11:39:26 AM 26.5919 -81.1428 293° West 113 130 6,600  Level Miami Center
Tue 11:40:26 AM 26.6036 -81.1711 295° West 113 130 6,600  Level Miami Center
Tue 11:41:26 AM 26.6150 -81.2039 291° West 113 130 6,600  Level Miami Center
Tue 11:42:26 AM 26.6267 -81.2347 293° West 113 130 6,600  Level Miami Center
Tue 11:43:26 AM 26.6364 -81.2606 293° West 108 124 6,600  Level Miami Center
Tue 11:44:26 AM 26.6481 -81.2911 293° West 108 124 6,600  Level Miami Center
Tue 11:45:26 AM 26.6617 -81.3219 296° West 113 130 6,600  Level Miami Center
Tue 11:47:00 AM 26.6812 -81.3763 292° West  Level FlightAware Approximate
Tue 11:54:00 AM 26.7684 -81.6194 292° West  Level FlightAware Approximate
Tue 11:55:00 AM 26.7808 -81.6541 292° West  Level FlightAware Approximate
Tue 11:56:00 AM 26.7933 -81.6889 292° West  Level FlightAware Approximate
Tue 11:57:00 AM 26.8057 -81.7236 292° West  Level FlightAware Approximate
Tue 11:58:00 AM 26.8181 -81.7584 292° West  Level FlightAware Approximate
Tue 11:59:00 AM 26.8305 -81.7932 292° West  Level FlightAware Approximate
Tue 12:00:00 PM 26.8428 -81.8280 292° West  Level FlightAware Approximate
Tue 12:01:00 PM 26.8552 -81.8628 292° West  Level FlightAware Approximate
Tue 12:02:00 PM 26.8676 -81.8976 292° West  Level FlightAware Approximate
Tue 12:03:00 PM 26.8799 -81.9324 292° West  Level FlightAware Approximate
Tue 12:04:00 PM 26.8923 -81.9673 292° West  Level FlightAware Approximate
Tue 12:05:00 PM 26.9046 -82.0021 292° West  Level FlightAware Approximate
Tue 12:06:00 PM 26.9169 -82.0369 292° West  Level FlightAware Approximate
Tue 12:07:00 PM 26.9293 -82.0718 292° West  Level FlightAware Approximate
Tue 12:08:00 PM 26.9445 -82.1057 299° West  Level FlightAware Approximate
Tue 12:09:00 PM 26.9578 -82.1400 291° West  Level FlightAware Approximate
Tue 12:10:00 PM 26.9695 -82.1751 291° West  Level FlightAware Approximate
Tue 12:11:00 PM 26.9812 -82.2103 291° West  Level FlightAware Approximate
Tue 12:12:00 PM 26.9907 -82.2462 286° West  Level FlightAware Approximate
Tue 12:13:00 PM 26.9998 -82.2823 286° West  Level FlightAware Approximate
Tue 12:14:00 PM 27.0159 -82.3151 299° West  Level FlightAware Approximate
Tue 12:15:00 PM 27.0323 -82.3478 299° West  Level FlightAware Approximate
Tue 12:16:00 PM 27.0461 -82.3820 294° West  Level FlightAware Approximate
Tue 12:17:00 PM 27.0598 -82.4162 294° West  Level FlightAware Approximate
Tue 12:18:00 PM 27.0667 -82.4333 294° West  Level FlightAware Approximate
Tue 12:19:00 PM 27.0716 -82.4403 294° West  Level Estimated
Tue 12:20:00 PM 27.0716 -82.4403 294° West  Level Estimated
Tue 12:21:00 PM 27.0716 -82.4403 294° West  Level Estimated

Login

Don't have an account? Register now (free) for customized features, flight alerts, and more!